sensor_id;sensor_type;location;lat;lon;timestamp;temperature;humidity
69204;DHT22;56317;27.658;85.326;2023-12-20T00:01:21;4.70;99.90
69204;DHT22;56317;27.658;85.326;2023-12-20T00:03:47;4.70;99.90
69204;DHT22;56317;27.658;85.326;2023-12-20T00:06:14;4.60;99.90
69204;DHT22;56317;27.658;85.326;2023-12-20T00:08:40;4.70;99.90
69204;DHT22;56317;27.658;85.326;2023-12-20T00:11:07;4.70;99.90
69204;DHT22;56317;27.658;85.326;2023-12-20T00:13:33;4.70;99.90
69204;DHT22;56317;27.658;85.326;2023-12-20T00:16:00;4.70;99.90
69204;DHT22;56317;27.658;85.326;2023-12-20T00:18:26;4.70;99.90
69204;DHT22;56317;27.658;85.326;2023-12-20T00:20:53;4.70;99.90
69204;DHT22;56317;27.658;85.326;2023-12-20T00:23:19;4.70;99.90
69204;DHT22;56317;27.658;85.326;2023-12-20T00:25:46;4.70;99.90
69204;DHT22;56317;27.658;85.326;2023-12-20T00:28:13;4.60;99.90
69204;DHT22;56317;27.658;85.326;2023-12-20T00:30:41;4.70;99.90
69204;DHT22;56317;27.658;85.326;2023-12-20T00:33:07;4.80;99.90
69204;DHT22;56317;27.658;85.326;2023-12-20T00:35:34;4.90;99.90
69204;DHT22;56317;27.658;85.326;2023-12-20T00:38:00;4.90;99.90
69204;DHT22;56317;27.658;85.326;2023-12-20T00:40:28;4.90;99.90
69204;DHT22;56317;27.658;85.326;2023-12-20T00:42:54;4.90;99.90
69204;DHT22;56317;27.658;85.326;2023-12-20T00:45:21;4.90;99.90
69204;DHT22;56317;27.658;85.326;2023-12-20T00:47:47;4.90;99.90
69204;DHT22;56317;27.658;85.326;2023-12-20T00:50:14;4.90;99.90
69204;DHT22;56317;27.658;85.326;2023-12-20T00:52:40;4.90;99.90
69204;DHT22;56317;27.658;85.326;2023-12-20T00:55:07;4.90;99.90
69204;DHT22;56317;27.658;85.326;2023-12-20T00:57:34;4.90;99.90
69204;DHT22;56317;27.658;85.326;2023-12-20T01:00:00;4.80;99.90
69204;DHT22;56317;27.658;85.326;2023-12-20T01:02:27;4.80;99.90
69204;DHT22;56317;27.658;85.326;2023-12-20T01:04:53;4.80;99.90
69204;DHT22;56317;27.658;85.326;2023-12-20T01:07:20;4.80;99.90
69204;DHT22;56317;27.658;85.326;2023-12-20T01:09:47;4.70;99.90
69204;DHT22;56317;27.658;85.326;2023-12-20T01:12:14;4.80;99.90
69204;DHT22;56317;27.658;85.326;2023-12-20T01:14:41;4.80;99.90
69204;DHT22;56317;27.658;85.326;2023-12-20T01:17:08;4.80;99.90
69204;DHT22;56317;27.658;85.326;2023-12-20T01:19:35;4.80;99.90
69204;DHT22;56317;27.658;85.326;2023-12-20T01:22:02;4.80;99.90
69204;DHT22;56317;27.658;85.326;2023-12-20T01:24:29;4.80;99.90
69204;DHT22;56317;27.658;85.326;2023-12-20T01:26:55;4.90;99.90
69204;DHT22;56317;27.658;85.326;2023-12-20T01:29:22;5.10;99.90
69204;DHT22;56317;27.658;85.326;2023-12-20T01:31:48;5.20;99.90
69204;DHT22;56317;27.658;85.326;2023-12-20T01:34:15;5.40;99.90
69204;DHT22;56317;27.658;85.326;2023-12-20T01:36:42;5.40;99.90
69204;DHT22;56317;27.658;85.326;2023-12-20T01:39:09;5.50;99.90
69204;DHT22;56317;27.658;85.326;2023-12-20T01:41:35;5.60;99.90
69204;DHT22;56317;27.658;85.326;2023-12-20T01:44:02;5.70;99.90
69204;DHT22;56317;27.658;85.326;2023-12-20T01:46:28;5.80;99.90
69204;DHT22;56317;27.658;85.326;2023-12-20T01:48:55;5.90;99.90
69204;DHT22;56317;27.658;85.326;2023-12-20T01:51:22;6.00;99.90
69204;DHT22;56317;27.658;85.326;2023-12-20T01:53:48;6.20;99.90
69204;DHT22;56317;27.658;85.326;2023-12-20T01:56:15;6.30;99.90
69204;DHT22;56317;27.658;85.326;2023-12-20T01:58:43;6.50;99.90
69204;DHT22;56317;27.658;85.326;2023-12-20T02:01:10;6.60;99.90
69204;DHT22;56317;27.658;85.326;2023-12-20T02:03:36;6.70;99.90
69204;DHT22;56317;27.658;85.326;2023-12-20T02:06:03;6.80;99.90
69204;DHT22;56317;27.658;85.326;2023-12-20T02:08:30;7.00;99.90
69204;DHT22;56317;27.658;85.326;2023-12-20T02:10:57;7.10;99.90
69204;DHT22;56317;27.658;85.326;2023-12-20T02:13:24;7.20;99.90
69204;DHT22;56317;27.658;85.326;2023-12-20T02:15:52;7.40;99.90
69204;DHT22;56317;27.658;85.326;2023-12-20T02:18:19;7.50;99.90
69204;DHT22;56317;27.658;85.326;2023-12-20T02:20:45;7.60;99.90
69204;DHT22;56317;27.658;85.326;2023-12-20T02:23:12;7.70;99.90
69204;DHT22;56317;27.658;85.326;2023-12-20T02:25:38;8.00;99.90
69204;DHT22;56317;27.658;85.326;2023-12-20T02:28:05;8.20;99.90
69204;DHT22;56317;27.658;85.326;2023-12-20T02:30:32;8.40;99.90
69204;DHT22;56317;27.658;85.326;2023-12-20T02:32:59;8.70;99.90
69204;DHT22;56317;27.658;85.326;2023-12-20T02:35:25;9.10;99.90
69204;DHT22;56317;27.658;85.326;2023-12-20T02:37:52;9.30;99.90
69204;DHT22;56317;27.658;85.326;2023-12-20T02:40:18;9.50;99.90
69204;DHT22;56317;27.658;85.326;2023-12-20T02:42:45;9.80;99.90
69204;DHT22;56317;27.658;85.326;2023-12-20T02:45:11;10.20;99.90
69204;DHT22;56317;27.658;85.326;2023-12-20T02:47:38;10.50;99.90
69204;DHT22;56317;27.658;85.326;2023-12-20T02:50:05;10.70;99.90
69204;DHT22;56317;27.658;85.326;2023-12-20T02:52:31;10.80;99.90
69204;DHT22;56317;27.658;85.326;2023-12-20T02:54:58;11.10;99.90
69204;DHT22;56317;27.658;85.326;2023-12-20T02:57:24;11.20;99.90
69204;DHT22;56317;27.658;85.326;2023-12-20T02:59:51;11.50;99.90
69204;DHT22;56317;27.658;85.326;2023-12-20T03:02:17;11.80;99.90
69204;DHT22;56317;27.658;85.326;2023-12-20T03:04:44;12.00;99.90
69204;DHT22;56317;27.658;85.326;2023-12-20T03:07:10;12.10;99.90
69204;DHT22;56317;27.658;85.326;2023-12-20T03:09:38;12.30;99.90
69204;DHT22;56317;27.658;85.326;2023-12-20T03:12:04;12.50;99.90
69204;DHT22;56317;27.658;85.326;2023-12-20T03:14:31;12.70;99.90
69204;DHT22;56317;27.658;85.326;2023-12-20T03:16:57;13.00;99.90
69204;DHT22;56317;27.658;85.326;2023-12-20T03:19:24;13.20;99.90
69204;DHT22;56317;27.658;85.326;2023-12-20T03:21:51;13.50;99.90
69204;DHT22;56317;27.658;85.326;2023-12-20T03:24:19;13.80;99.90
69204;DHT22;56317;27.658;85.326;2023-12-20T03:26:46;14.20;99.90
69204;DHT22;56317;27.658;85.326;2023-12-20T03:29:12;14.70;99.90
69204;DHT22;56317;27.658;85.326;2023-12-20T03:31:39;15.00;99.90
69204;DHT22;56317;27.658;85.326;2023-12-20T03:34:05;15.40;99.90
69204;DHT22;56317;27.658;85.326;2023-12-20T03:36:32;15.60;99.90
69204;DHT22;56317;27.658;85.326;2023-12-20T03:38:59;15.80;99.90
69204;DHT22;56317;27.658;85.326;2023-12-20T03:41:25;16.10;99.90
69204;DHT22;56317;27.658;85.326;2023-12-20T03:43:52;16.50;99.90
69204;DHT22;56317;27.658;85.326;2023-12-20T03:46:18;16.80;99.90
69204;DHT22;56317;27.658;85.326;2023-12-20T03:48:45;17.30;99.90
69204;DHT22;56317;27.658;85.326;2023-12-20T03:51:12;17.90;99.90
69204;DHT22;56317;27.658;85.326;2023-12-20T03:53:38;18.10;99.90
69204;DHT22;56317;27.658;85.326;2023-12-20T03:56:06;18.10;99.90
69204;DHT22;56317;27.658;85.326;2023-12-20T03:58:33;18.40;99.90
69204;DHT22;56317;27.658;85.326;2023-12-20T04:00:59;19.20;99.90
69204;DHT22;56317;27.658;85.326;2023-12-20T04:03:27;20.10;99.90
69204;DHT22;56317;27.658;85.326;2023-12-20T04:05:54;20.50;98.40
69204;DHT22;56317;27.658;85.326;2023-12-20T04:08:21;20.50;97.40
69204;DHT22;56317;27.658;85.326;2023-12-20T04:10:47;20.10;97.30
69204;DHT22;56317;27.658;85.326;2023-12-20T04:13:14;20.50;97.00
69204;DHT22;56317;27.658;85.326;2023-12-20T04:15:40;20.00;96.70
69204;DHT22;56317;27.658;85.326;2023-12-20T04:18:07;20.30;96.80
69204;DHT22;56317;27.658;85.326;2023-12-20T04:20:34;20.80;95.50
69204;DHT22;56317;27.658;85.326;2023-12-20T04:23:00;21.10;94.40
69204;DHT22;56317;27.658;85.326;2023-12-20T04:25:27;22.00;93.20
69204;DHT22;56317;27.658;85.326;2023-12-20T04:27:54;22.50;91.90
69204;DHT22;56317;27.658;85.326;2023-12-20T04:30:20;22.10;92.00
69204;DHT22;56317;27.658;85.326;2023-12-20T04:32:47;22.30;91.70
69204;DHT22;56317;27.658;85.326;2023-12-20T04:35:13;22.30;91.60
69204;DHT22;56317;27.658;85.326;2023-12-20T04:37:40;22.60;90.80
69204;DHT22;56317;27.658;85.326;2023-12-20T04:40:07;22.80;89.60
69204;DHT22;56317;27.658;85.326;2023-12-20T04:42:34;22.80;87.30
69204;DHT22;56317;27.658;85.326;2023-12-20T04:45:00;22.50;88.20
69204;DHT22;56317;27.658;85.326;2023-12-20T04:47:27;22.70;88.70
69204;DHT22;56317;27.658;85.326;2023-12-20T04:49:54;23.10;88.20
69204;DHT22;56317;27.658;85.326;2023-12-20T04:52:20;23.90;86.60
69204;DHT22;56317;27.658;85.326;2023-12-20T04:54:47;24.60;83.60
69204;DHT22;56317;27.658;85.326;2023-12-20T04:57:14;24.60;82.60
69204;DHT22;56317;27.658;85.326;2023-12-20T04:59:40;25.10;81.60
69204;DHT22;56317;27.658;85.326;2023-12-20T05:02:07;26.00;79.60
69204;DHT22;56317;27.658;85.326;2023-12-20T05:04:34;24.80;77.20
69204;DHT22;56317;27.658;85.326;2023-12-20T05:07:00;24.40;79.20
69204;DHT22;56317;27.658;85.326;2023-12-20T05:09:27;25.20;77.40
69204;DHT22;56317;27.658;85.326;2023-12-20T05:11:54;26.20;76.10
69204;DHT22;56317;27.658;85.326;2023-12-20T05:14:20;27.20;73.40
69204;DHT22;56317;27.658;85.326;2023-12-20T05:16:47;28.20;71.10
69204;DHT22;56317;27.658;85.326;2023-12-20T05:19:13;28.80;68.00
69204;DHT22;56317;27.658;85.326;2023-12-20T05:21:40;29.40;66.30
69204;DHT22;56317;27.658;85.326;2023-12-20T05:24:07;29.70;64.30
69204;DHT22;56317;27.658;85.326;2023-12-20T05:26:34;30.30;63.80
69204;DHT22;56317;27.658;85.326;2023-12-20T05:29:01;30.70;61.00
69204;DHT22;56317;27.658;85.326;2023-12-20T05:31:27;30.80;61.50
69204;DHT22;56317;27.658;85.326;2023-12-20T05:33:54;31.00;60.50
69204;DHT22;56317;27.658;85.326;2023-12-20T05:36:21;31.30;59.70
69204;DHT22;56317;27.658;85.326;2023-12-20T05:38:47;31.30;58.20
69204;DHT22;56317;27.658;85.326;2023-12-20T05:41:14;31.60;56.90
69204;DHT22;56317;27.658;85.326;2023-12-20T05:43:41;32.20;56.60
69204;DHT22;56317;27.658;85.326;2023-12-20T05:46:09;31.90;56.20
69204;DHT22;56317;27.658;85.326;2023-12-20T05:48:36;32.20;56.80
69204;DHT22;56317;27.658;85.326;2023-12-20T05:51:02;32.80;56.00
69204;DHT22;56317;27.658;85.326;2023-12-20T05:53:29;32.80;55.00
69204;DHT22;56317;27.658;85.326;2023-12-20T05:55:56;33.20;53.30
69204;DHT22;56317;27.658;85.326;2023-12-20T05:58:22;33.60;53.20
69204;DHT22;56317;27.658;85.326;2023-12-20T06:00:49;33.50;52.50
69204;DHT22;56317;27.658;85.326;2023-12-20T06:03:15;33.80;52.90
69204;DHT22;56317;27.658;85.326;2023-12-20T06:05:42;33.50;52.10
69204;DHT22;56317;27.658;85.326;2023-12-20T06:08:09;32.30;52.40
69204;DHT22;56317;27.658;85.326;2023-12-20T06:10:35;31.80;52.90
69204;DHT22;56317;27.658;85.326;2023-12-20T06:13:02;32.50;52.50
69204;DHT22;56317;27.658;85.326;2023-12-20T06:15:30;32.30;51.40
69204;DHT22;56317;27.658;85.326;2023-12-20T06:18:00;32.30;51.10
69204;DHT22;56317;27.658;85.326;2023-12-20T06:20:26;33.90;50.80
69204;DHT22;56317;27.658;85.326;2023-12-20T06:22:53;34.80;48.50
69204;DHT22;56317;27.658;85.326;2023-12-20T06:25:19;33.80;49.00
69204;DHT22;56317;27.658;85.326;2023-12-20T06:27:46;34.00;49.60
69204;DHT22;56317;27.658;85.326;2023-12-20T06:30:13;34.50;49.70
69204;DHT22;56317;27.658;85.326;2023-12-20T06:32:40;33.80;48.20
69204;DHT22;56317;27.658;85.326;2023-12-20T06:35:12;33.60;49.30
69204;DHT22;56317;27.658;85.326;2023-12-20T06:37:39;33.40;49.50
69204;DHT22;56317;27.658;85.326;2023-12-20T06:40:09;34.20;49.10
69204;DHT22;56317;27.658;85.326;2023-12-20T06:42:36;33.90;48.50
69204;DHT22;56317;27.658;85.326;2023-12-20T06:45:03;35.20;48.50
69204;DHT22;56317;27.658;85.326;2023-12-20T06:47:30;36.50;47.50
69204;DHT22;56317;27.658;85.326;2023-12-20T06:49:57;37.30;46.20
69204;DHT22;56317;27.658;85.326;2023-12-20T06:52:23;37.80;45.60
69204;DHT22;56317;27.658;85.326;2023-12-20T06:54:50;37.30;45.10
69204;DHT22;56317;27.658;85.326;2023-12-20T06:57:20;36.30;45.40
69204;DHT22;56317;27.658;85.326;2023-12-20T06:59:46;36.20;45.90
69204;DHT22;56317;27.658;85.326;2023-12-20T07:02:13;36.50;46.00
69204;DHT22;56317;27.658;85.326;2023-12-20T07:04:40;36.30;45.60
69204;DHT22;56317;27.658;85.326;2023-12-20T07:07:07;36.30;45.90
69204;DHT22;56317;27.658;85.326;2023-12-20T07:09:33;36.80;45.80
69204;DHT22;56317;27.658;85.326;2023-12-20T07:12:00;36.60;44.80
69204;DHT22;56317;27.658;85.326;2023-12-20T07:14:26;36.40;45.10
69204;DHT22;56317;27.658;85.326;2023-12-20T07:16:53;36.10;44.80
69204;DHT22;56317;27.658;85.326;2023-12-20T07:19:20;36.60;44.20
69204;DHT22;56317;27.658;85.326;2023-12-20T07:21:46;36.20;43.00
69204;DHT22;56317;27.658;85.326;2023-12-20T07:24:13;35.30;43.20
69204;DHT22;56317;27.658;85.326;2023-12-20T07:26:40;34.80;44.00
69204;DHT22;56317;27.658;85.326;2023-12-20T07:29:07;36.20;44.40
69204;DHT22;56317;27.658;85.326;2023-12-20T07:31:34;37.40;43.70
69204;DHT22;56317;27.658;85.326;2023-12-20T07:34:00;38.80;42.60
69204;DHT22;56317;27.658;85.326;2023-12-20T07:36:27;39.80;41.40
69204;DHT22;56317;27.658;85.326;2023-12-20T07:38:54;40.10;40.30
69204;DHT22;56317;27.658;85.326;2023-12-20T07:41:21;39.60;40.00
69204;DHT22;56317;27.658;85.326;2023-12-20T07:43:47;39.80;39.50
69204;DHT22;56317;27.658;85.326;2023-12-20T07:46:15;39.80;40.00
69204;DHT22;56317;27.658;85.326;2023-12-20T07:48:42;40.00;39.80
69204;DHT22;56317;27.658;85.326;2023-12-20T07:51:08;40.80;39.60
69204;DHT22;56317;27.658;85.326;2023-12-20T07:53:35;40.20;39.00
69204;DHT22;56317;27.658;85.326;2023-12-20T07:56:12;39.40;39.40
69204;DHT22;56317;27.658;85.326;2023-12-20T07:58:39;38.20;39.10
69204;DHT22;56317;27.658;85.326;2023-12-20T08:01:06;36.50;40.50
69204;DHT22;56317;27.658;85.326;2023-12-20T08:03:33;35.30;40.60
69204;DHT22;56317;27.658;85.326;2023-12-20T08:05:59;36.20;41.80
69204;DHT22;56317;27.658;85.326;2023-12-20T08:08:26;37.70;40.30
69204;DHT22;56317;27.658;85.326;2023-12-20T08:10:53;37.30;40.20
69204;DHT22;56317;27.658;85.326;2023-12-20T08:13:20;37.10;40.80
69204;DHT22;56317;27.658;85.326;2023-12-20T08:15:50;36.60;40.60
69204;DHT22;56317;27.658;85.326;2023-12-20T08:18:17;36.30;40.70
69204;DHT22;56317;27.658;85.326;2023-12-20T08:20:44;36.00;41.00
69204;DHT22;56317;27.658;85.326;2023-12-20T08:23:10;35.90;40.90
69204;DHT22;56317;27.658;85.326;2023-12-20T08:25:37;35.70;40.80
69204;DHT22;56317;27.658;85.326;2023-12-20T08:28:04;34.60;41.20
69204;DHT22;56317;27.658;85.326;2023-12-20T08:30:31;34.00;41.60
69204;DHT22;56317;27.658;85.326;2023-12-20T08:33:01;34.20;41.30
69204;DHT22;56317;27.658;85.326;2023-12-20T08:35:28;34.80;41.80
69204;DHT22;56317;27.658;85.326;2023-12-20T08:37:55;34.90;41.50
69204;DHT22;56317;27.658;85.326;2023-12-20T08:40:22;35.50;41.10
69204;DHT22;56317;27.658;85.326;2023-12-20T08:42:49;36.10;40.90
69204;DHT22;56317;27.658;85.326;2023-12-20T08:45:15;36.40;40.80
69204;DHT22;56317;27.658;85.326;2023-12-20T08:47:46;35.40;41.10
69204;DHT22;56317;27.658;85.326;2023-12-20T08:50:13;35.40;40.70
69204;DHT22;56317;27.658;85.326;2023-12-20T08:52:41;36.40;40.40
69204;DHT22;56317;27.658;85.326;2023-12-20T08:55:08;36.10;40.50
69204;DHT22;56317;27.658;85.326;2023-12-20T08:57:36;36.50;40.90
69204;DHT22;56317;27.658;85.326;2023-12-20T09:00:03;35.70;40.20
69204;DHT22;56317;27.658;85.326;2023-12-20T09:02:29;35.40;40.70
69204;DHT22;56317;27.658;85.326;2023-12-20T09:04:56;35.70;41.90
69204;DHT22;56317;27.658;85.326;2023-12-20T09:07:23;35.40;40.90
69204;DHT22;56317;27.658;85.326;2023-12-20T09:09:50;34.50;42.20
69204;DHT22;56317;27.658;85.326;2023-12-20T09:12:19;34.40;42.10
69204;DHT22;56317;27.658;85.326;2023-12-20T09:14:47;34.30;42.40
69204;DHT22;56317;27.658;85.326;2023-12-20T09:17:14;33.70;42.30
69204;DHT22;56317;27.658;85.326;2023-12-20T09:19:42;32.50;43.10
69204;DHT22;56317;27.658;85.326;2023-12-20T09:22:12;31.40;44.20
69204;DHT22;56317;27.658;85.326;2023-12-20T09:24:39;30.30;45.00
69204;DHT22;56317;27.658;85.326;2023-12-20T09:27:05;30.40;46.00
69204;DHT22;56317;27.658;85.326;2023-12-20T09:29:32;31.00;44.70
69204;DHT22;56317;27.658;85.326;2023-12-20T09:31:59;30.00;44.10
69204;DHT22;56317;27.658;85.326;2023-12-20T09:34:25;29.70;44.60
69204;DHT22;56317;27.658;85.326;2023-12-20T09:36:52;29.20;46.00
69204;DHT22;56317;27.658;85.326;2023-12-20T09:39:19;29.40;47.50
69204;DHT22;56317;27.658;85.326;2023-12-20T09:42:07;30.50;47.00
69204;DHT22;56317;27.658;85.326;2023-12-20T09:44:33;30.10;45.20
69204;DHT22;56317;27.658;85.326;2023-12-20T09:47:05;29.10;46.60
69204;DHT22;56317;27.658;85.326;2023-12-20T09:49:32;28.10;47.70
69204;DHT22;56317;27.658;85.326;2023-12-20T09:51:59;28.20;49.60
69204;DHT22;56317;27.658;85.326;2023-12-20T09:54:27;28.70;47.80
69204;DHT22;56317;27.658;85.326;2023-12-20T09:56:54;28.60;49.30
69204;DHT22;56317;27.658;85.326;2023-12-20T09:59:21;29.00;48.20
69204;DHT22;56317;27.658;85.326;2023-12-20T10:01:48;29.20;47.60
69204;DHT22;56317;27.658;85.326;2023-12-20T10:04:16;29.70;48.50
69204;DHT22;56317;27.658;85.326;2023-12-20T10:06:43;29.90;47.40
69204;DHT22;56317;27.658;85.326;2023-12-20T10:09:10;28.50;48.60
69204;DHT22;56317;27.658;85.326;2023-12-20T10:11:38;27.70;49.40
69204;DHT22;56317;27.658;85.326;2023-12-20T10:14:06;28.30;49.90
69204;DHT22;56317;27.658;85.326;2023-12-20T10:16:33;29.00;49.00
69204;DHT22;56317;27.658;85.326;2023-12-20T10:19:00;29.20;48.90
69204;DHT22;56317;27.658;85.326;2023-12-20T10:21:30;28.80;48.70
69204;DHT22;56317;27.658;85.326;2023-12-20T10:23:57;27.20;50.30
69204;DHT22;56317;27.658;85.326;2023-12-20T10:26:25;25.70;52.90
69204;DHT22;56317;27.658;85.326;2023-12-20T10:28:55;24.40;56.20
69204;DHT22;56317;27.658;85.326;2023-12-20T10:31:34;23.30;59.40
69204;DHT22;56317;27.658;85.326;2023-12-20T10:34:01;22.40;61.00
69204;DHT22;56317;27.658;85.326;2023-12-20T10:36:29;21.80;62.20
69204;DHT22;56317;27.658;85.326;2023-12-20T10:38:57;21.50;64.70
69204;DHT22;56317;27.658;85.326;2023-12-20T10:41:28;21.40;64.20
69204;DHT22;56317;27.658;85.326;2023-12-20T10:44:02;21.20;64.20
69204;DHT22;56317;27.658;85.326;2023-12-20T10:46:29;21.00;64.10
69204;DHT22;56317;27.658;85.326;2023-12-20T10:48:56;20.60;64.90
69204;DHT22;56317;27.658;85.326;2023-12-20T10:51:24;20.30;65.20
69204;DHT22;56317;27.658;85.326;2023-12-20T10:53:52;19.90;65.30
69204;DHT22;56317;27.658;85.326;2023-12-20T10:56:19;19.40;67.30
69204;DHT22;56317;27.658;85.326;2023-12-20T10:58:52;19.00;68.10
69204;DHT22;56317;27.658;85.326;2023-12-20T11:01:20;18.50;69.60
69204;DHT22;56317;27.658;85.326;2023-12-20T11:03:51;18.10;70.50
69204;DHT22;56317;27.658;85.326;2023-12-20T11:14:23;16.60;73.30
69204;DHT22;56317;27.658;85.326;2023-12-20T11:17:04;16.30;76.00
69204;DHT22;56317;27.658;85.326;2023-12-20T11:19:31;16.00;76.60
69204;DHT22;56317;27.658;85.326;2023-12-20T11:21:58;15.60;76.80
69204;DHT22;56317;27.658;85.326;2023-12-20T11:24:24;15.30;78.50
69204;DHT22;56317;27.658;85.326;2023-12-20T11:26:51;15.00;79.70
69204;DHT22;56317;27.658;85.326;2023-12-20T11:29:30;14.80;79.30
69204;DHT22;56317;27.658;85.326;2023-12-20T11:34:58;14.40;81.80
69204;DHT22;56317;27.658;85.326;2023-12-20T11:37:31;14.20;80.40
69204;DHT22;56317;27.658;85.326;2023-12-20T11:40:02;14.00;83.20
69204;DHT22;56317;27.658;85.326;2023-12-20T11:42:39;13.90;83.90
69204;DHT22;56317;27.658;85.326;2023-12-20T11:45:09;13.70;85.50
69204;DHT22;56317;27.658;85.326;2023-12-20T11:47:36;13.60;85.20
69204;DHT22;56317;27.658;85.326;2023-12-20T11:50:02;13.40;86.50
69204;DHT22;56317;27.658;85.326;2023-12-20T11:52:30;13.30;86.60
69204;DHT22;56317;27.658;85.326;2023-12-20T11:54:57;13.20;87.40
69204;DHT22;56317;27.658;85.326;2023-12-20T11:57:24;13.10;87.80
69204;DHT22;56317;27.658;85.326;2023-12-20T11:59:51;13.00;89.20
69204;DHT22;56317;27.658;85.326;2023-12-20T12:02:17;12.90;86.70
69204;DHT22;56317;27.658;85.326;2023-12-20T12:04:44;12.70;90.00
69204;DHT22;56317;27.658;85.326;2023-12-20T12:07:10;12.60;90.40
69204;DHT22;56317;27.658;85.326;2023-12-20T12:09:37;12.50;89.30
69204;DHT22;56317;27.658;85.326;2023-12-20T12:12:04;12.50;90.90
69204;DHT22;56317;27.658;85.326;2023-12-20T12:14:30;12.40;90.20
69204;DHT22;56317;27.658;85.326;2023-12-20T12:16:57;12.30;91.20
69204;DHT22;56317;27.658;85.326;2023-12-20T12:19:24;12.20;91.60
69204;DHT22;56317;27.658;85.326;2023-12-20T12:21:51;12.20;92.30
69204;DHT22;56317;27.658;85.326;2023-12-20T12:24:20;12.20;91.90
69204;DHT22;56317;27.658;85.326;2023-12-20T12:26:50;12.20;91.40
69204;DHT22;56317;27.658;85.326;2023-12-20T12:29:17;12.00;92.40
69204;DHT22;56317;27.658;85.326;2023-12-20T12:31:44;12.00;93.90
69204;DHT22;56317;27.658;85.326;2023-12-20T12:34:10;11.90;93.10
69204;DHT22;56317;27.658;85.326;2023-12-20T12:36:37;11.90;93.10
69204;DHT22;56317;27.658;85.326;2023-12-20T12:39:04;11.90;94.30
69204;DHT22;56317;27.658;85.326;2023-12-20T12:41:31;11.90;94.30
69204;DHT22;56317;27.658;85.326;2023-12-20T12:43:57;11.80;94.60
69204;DHT22;56317;27.658;85.326;2023-12-20T12:46:24;11.70;95.20
69204;DHT22;56317;27.658;85.326;2023-12-20T12:48:51;11.70;95.30
69204;DHT22;56317;27.658;85.326;2023-12-20T12:51:17;11.60;95.30
69204;DHT22;56317;27.658;85.326;2023-12-20T12:53:44;11.60;97.40
69204;DHT22;56317;27.658;85.326;2023-12-20T12:56:11;11.50;96.60
69204;DHT22;56317;27.658;85.326;2023-12-20T12:58:38;11.30;96.80
69204;DHT22;56317;27.658;85.326;2023-12-20T13:01:05;11.20;99.10
69204;DHT22;56317;27.658;85.326;2023-12-20T13:03:32;11.20;99.60
69204;DHT22;56317;27.658;85.326;2023-12-20T13:05:59;11.20;99.90
69204;DHT22;56317;27.658;85.326;2023-12-20T13:08:26;11.10;99.90
69204;DHT22;56317;27.658;85.326;2023-12-20T13:10:53;11.10;99.90
69204;DHT22;56317;27.658;85.326;2023-12-20T13:13:19;11.10;99.90
69204;DHT22;56317;27.658;85.326;2023-12-20T13:15:46;11.00;99.90
69204;DHT22;56317;27.658;85.326;2023-12-20T13:18:16;10.90;99.90
69204;DHT22;56317;27.658;85.326;2023-12-20T13:20:44;10.80;99.90
69204;DHT22;56317;27.658;85.326;2023-12-20T13:23:11;10.80;99.90
69204;DHT22;56317;27.658;85.326;2023-12-20T13:25:37;10.70;99.90
69204;DHT22;56317;27.658;85.326;2023-12-20T13:28:04;10.60;99.90
69204;DHT22;56317;27.658;85.326;2023-12-20T13:30:30;10.60;99.90
69204;DHT22;56317;27.658;85.326;2023-12-20T13:32:57;10.40;99.90
69204;DHT22;56317;27.658;85.326;2023-12-20T13:35:24;10.40;99.90
69204;DHT22;56317;27.658;85.326;2023-12-20T13:37:50;10.30;99.90
69204;DHT22;56317;27.658;85.326;2023-12-20T13:40:18;10.30;99.90
69204;DHT22;56317;27.658;85.326;2023-12-20T13:42:45;10.20;99.90
69204;DHT22;56317;27.658;85.326;2023-12-20T13:45:11;10.30;99.90
69204;DHT22;56317;27.658;85.326;2023-12-20T13:47:38;10.20;99.90
69204;DHT22;56317;27.658;85.326;2023-12-20T13:50:04;10.10;99.90
69204;DHT22;56317;27.658;85.326;2023-12-20T13:52:31;10.00;99.90
69204;DHT22;56317;27.658;85.326;2023-12-20T13:54:58;10.10;99.90
69204;DHT22;56317;27.658;85.326;2023-12-20T13:57:24;10.00;99.90
69204;DHT22;56317;27.658;85.326;2023-12-20T13:59:51;10.00;99.90
69204;DHT22;56317;27.658;85.326;2023-12-20T14:02:17;9.90;99.90
69204;DHT22;56317;27.658;85.326;2023-12-20T14:04:44;9.70;99.90
69204;DHT22;56317;27.658;85.326;2023-12-20T14:07:10;9.60;99.90
69204;DHT22;56317;27.658;85.326;2023-12-20T14:09:37;9.50;99.90
69204;DHT22;56317;27.658;85.326;2023-12-20T14:12:03;9.40;99.90
69204;DHT22;56317;27.658;85.326;2023-12-20T14:14:30;9.30;99.90
69204;DHT22;56317;27.658;85.326;2023-12-20T14:16:57;9.40;99.90
69204;DHT22;56317;27.658;85.326;2023-12-20T14:19:23;9.60;99.90
69204;DHT22;56317;27.658;85.326;2023-12-20T14:21:50;9.60;99.90
69204;DHT22;56317;27.658;85.326;2023-12-20T14:24:16;9.70;99.90
69204;DHT22;56317;27.658;85.326;2023-12-20T14:26:43;9.70;99.90
69204;DHT22;56317;27.658;85.326;2023-12-20T14:29:09;9.50;99.90
69204;DHT22;56317;27.658;85.326;2023-12-20T14:31:36;9.40;99.90
69204;DHT22;56317;27.658;85.326;2023-12-20T14:34:04;9.20;99.90
69204;DHT22;56317;27.658;85.326;2023-12-20T14:36:31;9.00;99.90
69204;DHT22;56317;27.658;85.326;2023-12-20T14:38:57;8.90;99.90
69204;DHT22;56317;27.658;85.326;2023-12-20T14:41:25;8.80;99.90
69204;DHT22;56317;27.658;85.326;2023-12-20T14:43:51;8.80;99.90
69204;DHT22;56317;27.658;85.326;2023-12-20T14:46:19;8.90;99.90
69204;DHT22;56317;27.658;85.326;2023-12-20T14:48:45;8.80;99.90
69204;DHT22;56317;27.658;85.326;2023-12-20T14:51:12;8.80;99.90
69204;DHT22;56317;27.658;85.326;2023-12-20T14:53:39;8.70;99.90
69204;DHT22;56317;27.658;85.326;2023-12-20T14:56:06;8.60;99.90
69204;DHT22;56317;27.658;85.326;2023-12-20T14:58:32;8.60;99.90
69204;DHT22;56317;27.658;85.326;2023-12-20T15:00:59;8.50;99.90
69204;DHT22;56317;27.658;85.326;2023-12-20T15:03:25;8.50;99.90
69204;DHT22;56317;27.658;85.326;2023-12-20T15:05:52;8.50;99.90
69204;DHT22;56317;27.658;85.326;2023-12-20T15:08:18;8.40;99.90
69204;DHT22;56317;27.658;85.326;2023-12-20T15:10:45;8.40;99.90
69204;DHT22;56317;27.658;85.326;2023-12-20T15:13:12;8.30;99.90
69204;DHT22;56317;27.658;85.326;2023-12-20T15:15:38;8.20;99.90
69204;DHT22;56317;27.658;85.326;2023-12-20T15:18:05;8.10;99.90
69204;DHT22;56317;27.658;85.326;2023-12-20T15:20:32;8.10;99.90
69204;DHT22;56317;27.658;85.326;2023-12-20T15:22:59;8.00;99.90
69204;DHT22;56317;27.658;85.326;2023-12-20T15:25:32;8.10;99.90
69204;DHT22;56317;27.658;85.326;2023-12-20T15:27:59;8.10;99.90
69204;DHT22;56317;27.658;85.326;2023-12-20T15:30:28;8.00;99.90